Ocean King D — V7TV6 — position and weather

sailwx.info

Track history (hours):
 
Tides and Currents Weather Stations Pressure Air Temp Water Temp Dewpoint Dewpoint Depression Visibility Wind Speed Wind Dir Waves Ship Positions

Ocean King D

Last reported at 2014-Dec-18 22:32 UTC. Time now 2014-Dec-21 14:27 UTC.
Position N 39°11' W 009°44'.

Length 190 m; draft 8.7 m.

Type: Cargo ship. MMSI: 538003892.

Date/timePositionNaut miles runAvg speedWind from/ knotsBaromVisibWave heightAir tempDewpointWater temp
2014-Dec-18 22:32N 39°11' W 009°44'1212.3
2014-Dec-18 21:32N 38°58' W 009°42'1212.3
2014-Dec-18 20:33N 38°46' W 009°42'10 9.7
2014-Dec-18 19:32N 38°38' W 009°35'1010.5
2014-Dec-18 18:33N 38°38' W 009°21'6 5.9
2014-Dec-18 17:31N 38°41' W 009°14'0 0.0
2014-Dec-18 16:31N 38°41' W 009°14'0 0.0
2014-Dec-18 15:31N 38°41' W 009°14'0 0.0
2014-Dec-18 14:31N 38°41' W 009°14'0 0.0
2014-Dec-18 13:31N 38°41' W 009°14'0 0.0
2014-Dec-18 12:31N 38°41' W 009°14'0 0.0
2014-Dec-18 11:31N 38°41' W 009°14'0 0.0
2014-Dec-18 10:31N 38°41' W 009°14'0 0.0
2014-Dec-18 09:31N 38°41' W 009°14'0 0.0
2014-Dec-18 08:31N 38°41' W 009°14'0 0.0
2014-Dec-18 07:31N 38°41' W 009°14'0 0.0
2014-Dec-18 06:31N 38°41' W 009°14'0 0.0
2014-Dec-18 05:31N 38°41' W 009°14'0 0.0
2014-Dec-18 04:31N 38°41' W 009°14'0 0.0
2014-Dec-18 03:31N 38°41' W 009°14'0 0.0
2014-Dec-18 02:28N 38°41' W 009°14'0 0.0
2014-Dec-18 01:31N 38°41' W 009°14'0 0.0
2014-Dec-18 00:31N 38°41' W 009°14'0 0.0
2014-Dec-17 23:31N 38°41' W 009°14'0 0.0
2014-Dec-17 22:31N 38°41' W 009°14'0 0.0
2014-Dec-17 21:31N 38°41' W 009°14'0 0.0
2014-Dec-17 20:31N 38°41' W 009°14'0 0.0
2014-Dec-17 19:31N 38°41' W 009°14'0 0.0
2014-Dec-17 18:31N 38°41' W 009°14'0 0.0
2014-Dec-17 17:31N 38°41' W 009°14'0 0.0
2014-Dec-17 16:31N 38°41' W 009°14'0 0.0
2014-Dec-17 15:31N 38°41' W 009°14'0 0.0
2014-Dec-17 14:31N 38°41' W 009°14'0 0.0
2014-Dec-17 13:31N 38°41' W 009°14'0 0.0
2014-Dec-17 12:31N 38°41' W 009°14'0 0.0
2014-Dec-17 11:31N 38°41' W 009°14'0 0.0
2014-Dec-17 10:31N 38°41' W 009°14'0 0.0
2014-Dec-17 09:31N 38°41' W 009°14'0 0.0
2014-Dec-17 08:31N 38°41' W 009°14'0 0.0
2014-Dec-17 07:31N 38°41' W 009°14'0 0.0
2014-Dec-17 06:31N 38°41' W 009°14'0 0.0
2014-Dec-17 05:31N 38°41' W 009°14'0 0.0
2014-Dec-17 04:31N 38°41' W 009°14'0 0.0
2014-Dec-17 03:31N 38°41' W 009°14'0 0.0
2014-Dec-17 02:31N 38°41' W 009°14'0 0.0
2014-Dec-17 01:31N 38°41' W 009°14'0 0.0
2014-Dec-17 00:31N 38°41' W 009°14'0 0.0
2014-Dec-16 23:31N 38°41' W 009°14'0 0.0
2014-Dec-16 22:31N 38°41' W 009°14'0 0.0
2014-Dec-16 21:31N 38°41' W 009°14'0 0.0
2014-Dec-16 20:31N 38°41' W 009°14'0 0.0
2014-Dec-16 19:31N 38°41' W 009°14'0 0.0
2014-Dec-16 18:31N 38°41' W 009°14'0 0.0
2014-Dec-16 17:31N 38°41' W 009°14'0 0.0
2014-Dec-16 16:31N 38°41' W 009°14'2 2.0
2014-Dec-16 15:33N 38°41' W 009°17'6 5.6
2014-Dec-16 14:29N 38°39' W 009°24'1 0.7
2014-Dec-16 12:31N 38°40' W 009°23'0 0.0
2014-Dec-16 11:28N 38°40' W 009°23'0 0.0
2014-Dec-16 10:22N 38°40' W 009°23'1 1.5
2014-Dec-16 09:29N 38°40' W 009°25'8 8.8
2014-Dec-16 08:33N 38°32' W 009°30'1010.1
2014-Dec-16 07:33N 38°23' W 009°35'1110.9
2014-Dec-16 06:33N 38°14' W 009°42'  
Track history (hours):
 
Tides and Currents Weather Stations Pressure Air Temp Water Temp Dewpoint Dewpoint Depression Visibility Wind Speed Wind Dir Waves Ship Positions

Ocean King D

Last reported at 2014-Dec-18 22:32 UTC. Time now 2014-Dec-21 14:27 UTC.
Position N 39°11' W 009°44'.

Length 190 m; draft 8.7 m.

Type: Cargo ship. MMSI: 538003892.

Date/timePositionNaut miles runAvg speedWind from/ knotsBaromVisibWave heightAir tempDewpointWater temp
2014-Dec-18 22:32N 39°11' W 009°44'1212.3
2014-Dec-18 21:32N 38°58' W 009°42'1212.3
2014-Dec-18 20:33N 38°46' W 009°42'10 9.7
2014-Dec-18 19:32N 38°38' W 009°35'1010.5
2014-Dec-18 18:33N 38°38' W 009°21'6 5.9
2014-Dec-18 17:31N 38°41' W 009°14'0 0.0
2014-Dec-18 16:31N 38°41' W 009°14'0 0.0
2014-Dec-18 15:31N 38°41' W 009°14'0 0.0
2014-Dec-18 14:31N 38°41' W 009°14'0 0.0
2014-Dec-18 13:31N 38°41' W 009°14'0 0.0
2014-Dec-18 12:31N 38°41' W 009°14'0 0.0
2014-Dec-18 11:31N 38°41' W 009°14'0 0.0
2014-Dec-18 10:31N 38°41' W 009°14'0 0.0
2014-Dec-18 09:31N 38°41' W 009°14'0 0.0
2014-Dec-18 08:31N 38°41' W 009°14'0 0.0
2014-Dec-18 07:31N 38°41' W 009°14'0 0.0
2014-Dec-18 06:31N 38°41' W 009°14'0 0.0
2014-Dec-18 05:31N 38°41' W 009°14'0 0.0
2014-Dec-18 04:31N 38°41' W 009°14'0 0.0
2014-Dec-18 03:31N 38°41' W 009°14'0 0.0
2014-Dec-18 02:28N 38°41' W 009°14'0 0.0
2014-Dec-18 01:31N 38°41' W 009°14'0 0.0
2014-Dec-18 00:31N 38°41' W 009°14'0 0.0
2014-Dec-17 23:31N 38°41' W 009°14'0 0.0
2014-Dec-17 22:31N 38°41' W 009°14'0 0.0
2014-Dec-17 21:31N 38°41' W 009°14'0 0.0
2014-Dec-17 20:31N 38°41' W 009°14'0 0.0
2014-Dec-17 19:31N 38°41' W 009°14'0 0.0
2014-Dec-17 18:31N 38°41' W 009°14'0 0.0
2014-Dec-17 17:31N 38°41' W 009°14'0 0.0
2014-Dec-17 16:31N 38°41' W 009°14'0 0.0
2014-Dec-17 15:31N 38°41' W 009°14'0 0.0
2014-Dec-17 14:31N 38°41' W 009°14'0 0.0
2014-Dec-17 13:31N 38°41' W 009°14'0 0.0
2014-Dec-17 12:31N 38°41' W 009°14'0 0.0
2014-Dec-17 11:31N 38°41' W 009°14'0 0.0
2014-Dec-17 10:31N 38°41' W 009°14'0 0.0
2014-Dec-17 09:31N 38°41' W 009°14'0 0.0
2014-Dec-17 08:31N 38°41' W 009°14'0 0.0
2014-Dec-17 07:31N 38°41' W 009°14'0 0.0
2014-Dec-17 06:31N 38°41' W 009°14'0 0.0
2014-Dec-17 05:31N 38°41' W 009°14'0 0.0
2014-Dec-17 04:31N 38°41' W 009°14'0 0.0
2014-Dec-17 03:31N 38°41' W 009°14'0 0.0
2014-Dec-17 02:31N 38°41' W 009°14'0 0.0
2014-Dec-17 01:31N 38°41' W 009°14'0 0.0
2014-Dec-17 00:31N 38°41' W 009°14'0 0.0
2014-Dec-16 23:31N 38°41' W 009°14'0 0.0
2014-Dec-16 22:31N 38°41' W 009°14'0 0.0
2014-Dec-16 21:31N 38°41' W 009°14'0 0.0
2014-Dec-16 20:31N 38°41' W 009°14'0 0.0
2014-Dec-16 19:31N 38°41' W 009°14'0 0.0
2014-Dec-16 18:31N 38°41' W 009°14'0 0.0
2014-Dec-16 17:31N 38°41' W 009°14'0 0.0
2014-Dec-16 16:31N 38°41' W 009°14'2 2.0
2014-Dec-16 15:33N 38°41' W 009°17'6 5.6
2014-Dec-16 14:29N 38°39' W 009°24'1 0.7
2014-Dec-16 12:31N 38°40' W 009°23'0 0.0
2014-Dec-16 11:28N 38°40' W 009°23'0 0.0
2014-Dec-16 10:22N 38°40' W 009°23'1 1.5
2014-Dec-16 09:29N 38°40' W 009°25'8 8.8
2014-Dec-16 08:33N 38°32' W 009°30'1010.1
2014-Dec-16 07:33N 38°23' W 009°35'1110.9
2014-Dec-16 06:33N 38°14' W 009°42'  

Dump ship's entire track history